Time;durP1;ratioP1;P1;durP2;ratioP2;P2;SDS_P1;SDS_P2;PMS_P1;PMS_P2;Temp;Humidity;BMP_temperature;BMP_pressure;BME280_temperature;BME280_humidity;BME280_pressure;Samples;Min_cycle;Max_cycle;Signal;HPM_P1;HPM_P2
2022/12/20 00:02:12;;;;;;;18.00;10.67;;;;;;;0.73;100.00;101670.03;5051150;28;20578;-56
2022/12/20 00:04:39;;;;;;;16.13;9.90;;;;;;;0.85;100.00;101668.84;5051005;28;20200;-55
2022/12/20 00:07:08;;;;;;;19.03;11.13;;;;;;;0.99;100.00;101673.78;5051101;28;20256;-56
2022/12/20 00:09:34;;;;;;;23.50;12.17;;;;;;;0.98;100.00;101674.56;5050737;28;20284;-57
2022/12/20 00:12:02;;;;;;;18.90;11.33;;;;;;;0.91;100.00;101664.88;5050797;28;20200;-56
2022/12/20 00:14:28;;;;;;;15.37;10.47;;;;;;;0.97;100.00;101664.28;5050836;28;20235;-56
2022/12/20 00:16:55;;;;;;;20.93;10.77;;;;;;;0.98;100.00;101659.22;5050507;28;20244;-57
2022/12/20 00:19:22;;;;;;;16.30;10.03;;;;;;;0.95;100.00;101665.88;5050582;28;20196;-56
2022/12/20 00:21:49;;;;;;;17.00;9.93;;;;;;;0.88;100.00;101674.97;5050675;28;20211;-57
2022/12/20 00:24:18;;;;;;;17.80;10.20;;;;;;;0.83;100.00;101663.66;5050870;28;20582;-61
2022/12/20 00:26:44;;;;;;;24.27;10.27;;;;;;;0.86;100.00;101663.81;5050873;28;20219;-60
2022/12/20 00:29:11;;;;;;;18.00;9.63;;;;;;;0.83;100.00;101662.78;5050931;28;20193;-56
2022/12/20 00:31:38;;;;;;;17.83;9.93;;;;;;;0.78;100.00;101664.28;5050745;28;20207;-56
2022/12/20 00:34:05;;;;;;;19.33;10.53;;;;;;;0.79;100.00;101661.75;5050224;28;20197;-56
2022/12/20 00:36:33;;;;;;;19.97;11.00;;;;;;;0.76;100.00;101668.44;5050542;28;20588;-57
2022/12/20 00:39:01;;;;;;;21.33;12.00;;;;;;;0.76;100.00;101668.44;5050284;28;20295;-56
2022/12/20 00:41:32;;;;;;;22.57;11.53;;;;;;;0.82;100.00;101671.25;5050128;28;20308;-60
2022/12/20 00:43:59;;;;;;;23.10;12.43;;;;;;;0.55;100.00;101676.88;5051275;28;20212;-59
2022/12/20 00:46:27;;;;;;;22.60;12.07;;;;;;;0.52;100.00;101655.41;5050823;28;20197;-59
2022/12/20 00:48:55;;;;;;;23.53;12.53;;;;;;;0.53;100.00;101657.16;5050530;28;20193;-60
2022/12/20 00:51:24;;;;;;;24.87;14.37;;;;;;;0.50;100.00;101664.69;5051158;28;20668;-59
2022/12/20 00:53:51;;;;;;;31.47;14.20;;;;;;;0.49;100.00;101661.25;5050658;28;20307;-60
2022/12/20 00:56:18;;;;;;;29.10;14.37;;;;;;;0.30;100.00;101663.78;5050410;28;20291;-59
2022/12/20 00:58:47;;;;;;;23.47;12.80;;;;;;;0.12;100.00;101653.53;5050309;28;20202;-59
2022/12/20 01:01:20;;;;;;;20.83;12.93;;;;;;;0.18;100.00;101651.31;5050016;28;20239;-60
2022/12/20 01:03:47;;;;;;;27.80;12.90;;;;;;;0.29;100.00;101656.91;5049755;28;20200;-56
2022/12/20 01:06:14;;;;;;;20.93;11.93;;;;;;;0.25;100.00;101652.44;5049883;28;20204;-56
2022/12/20 01:08:41;;;;;;;26.87;12.70;;;;;;;0.34;100.00;101640.09;5049614;28;20196;-56
2022/12/20 01:11:11;;;;;;;26.87;12.23;;;;;;;0.25;100.00;101643.09;5049740;28;20283;-56
2022/12/20 01:13:41;;;;;;;22.93;11.50;;;;;;;0.16;100.00;101641.81;5049722;28;20280;-56
2022/12/20 01:16:13;;;;;;;24.67;11.37;;;;;;;-0.12;100.00;101648.19;5049716;28;20604;-56
2022/12/20 01:18:40;;;;;;;23.77;11.50;;;;;;;-0.04;100.00;101630.66;5049778;28;20207;-60
2022/12/20 01:21:08;;;;;;;27.63;12.50;;;;;;;-0.11;100.00;101634.59;5049769;28;20246;-59
2022/12/20 01:23:35;;;;;;;21.07;11.40;;;;;;;-0.17;100.00;101633.44;5049704;28;20233;-60
2022/12/20 01:26:04;;;;;;;19.43;10.63;;;;;;;-0.21;100.00;101626.41;5049313;28;20203;-56
2022/12/20 01:28:32;;;;;;;20.23;11.10;;;;;;;-0.14;100.00;101624.25;5049805;28;20204;-60
2022/12/20 01:30:59;;;;;;;22.03;11.53;;;;;;;-0.18;100.00;101617.22;5049472;28;20223;-59
2022/12/20 01:33:27;;;;;;;23.23;12.53;;;;;;;-0.16;100.00;101613.09;5049633;28;20196;-59
2022/12/20 01:35:58;;;;;;;18.13;10.20;;;;;;;-0.12;100.00;101602.22;5049097;28;20202;-60
2022/12/20 01:38:25;;;;;;;22.40;10.77;;;;;;;-0.11;100.00;101603.94;5049386;28;20201;-59
2022/12/20 01:40:52;;;;;;;21.63;10.77;;;;;;;-0.11;100.00;101600.53;5049126;28;20224;-55
2022/12/20 01:43:20;;;;;;;19.77;11.17;;;;;;;-0.11;100.00;101592.88;5049649;28;20686;-56
2022/12/20 01:45:47;;;;;;;21.67;11.27;;;;;;;-0.15;100.00;101599.53;5049369;28;20211;-56
2022/12/20 01:48:17;;;;;;;22.53;11.70;;;;;;;-0.13;100.00;101603.03;5049481;28;20276;-60
2022/12/20 01:50:46;;;;;;;23.90;12.63;;;;;;;-0.07;100.00;101595.66;5049263;28;20192;-61
2022/12/20 01:53:14;;;;;;;24.23;12.37;;;;;;;-0.13;100.00;101592.81;5049093;28;20204;-60
2022/12/20 01:55:42;;;;;;;22.63;11.63;;;;;;;-0.07;100.00;101587.13;5049300;28;20196;-59
2022/12/20 01:58:13;;;;;;;20.57;10.97;;;;;;;-0.20;100.00;101583.09;5049358;28;20790;-60
2022/12/20 02:00:39;;;;;;;19.53;11.50;;;;;;;-0.15;100.00;101583.34;5049222;28;20247;-60
2022/12/20 02:03:09;;;;;;;22.47;11.80;;;;;;;-0.24;100.00;101586.34;5049062;28;20201;-59
2022/12/20 02:05:38;;;;;;;24.50;12.17;;;;;;;-0.54;100.00;101578.06;5049050;28;20349;-56
2022/12/20 02:08:08;;;;;;;21.80;11.40;;;;;;;-0.58;100.00;101582.94;5048978;28;20196;-57
2022/12/20 02:10:51;;;;;;;25.03;12.23;;;;;;;-0.54;100.00;101584.84;5049026;28;20203;-57
2022/12/20 02:13:26;;;;;;;23.00;12.30;;;;;;;-0.42;100.00;101580.31;5049163;28;20208;-56
2022/12/20 02:15:56;;;;;;;24.60;12.13;;;;;;;-0.38;100.00;101570.34;5051205;28;20240;-60
2022/12/20 02:18:27;;;;;;;22.43;11.37;;;;;;;-0.34;100.00;101570.50;5052644;28;20251;-56
2022/12/20 02:21:11;;;;;;;25.00;11.20;;;;;;;-0.31;100.00;101568.97;5052845;28;20718;-56
2022/12/20 02:24:18;;;;;;;26.23;11.83;;;;;;;-0.37;100.00;101576.34;5052654;28;20196;-59
2022/12/20 02:27:10;;;;;;;29.63;13.27;;;;;;;-0.40;100.00;101577.06;5052548;28;20204;-56
2022/12/20 02:29:40;;;;;;;22.73;12.13;;;;;;;-0.37;100.00;101571.22;5051220;28;20196;-60
2022/12/20 02:32:14;;;;;;;25.63;12.20;;;;;;;-0.23;100.00;101582.97;5052969;28;20646;-60
2022/12/20 02:34:42;;;;;;;24.83;12.10;;;;;;;-0.38;100.00;101578.00;5052718;28;20196;-61
2022/12/20 02:37:09;;;;;;;26.93;12.47;;;;;;;-0.38;100.00;101569.47;5052506;28;20200;-60
2022/12/20 02:39:39;;;;;;;24.97;12.30;;;;;;;-0.38;100.00;101574.59;5052894;28;20201;-61
2022/12/20 02:42:09;;;;;;;21.03;12.67;;;;;;;-0.31;100.00;101568.97;5052379;28;20225;-60
2022/12/20 02:47:30;;;;;;;22.00;11.57;;;;;;;-0.28;100.00;101575.91;5052385;28;20692;-61
2022/12/20 02:49:58;;;;;;;22.90;12.57;;;;;;;-0.23;100.00;101567.66;5052388;28;20688;-59
2022/12/20 02:52:29;;;;;;;24.03;12.27;;;;;;;-0.19;100.00;101569.53;5052422;28;20201;-59
2022/12/20 02:54:57;;;;;;;24.83;13.03;;;;;;;-0.22;100.00;101568.50;5052489;28;20197;-59
2022/12/20 02:57:32;;;;;;;21.47;11.97;;;;;;;-0.25;100.00;101559.06;5052350;28;20567;-60
2022/12/20 03:00:05;;;;;;;25.90;13.90;;;;;;;-0.33;100.00;101560.34;5052141;28;20199;-61
2022/12/20 03:05:16;;;;;;;33.97;15.50;;;;;;;-0.27;100.00;101565.75;5051954;28;20196;-56
2022/12/20 03:07:43;;;;;;;33.60;15.37;;;;;;;-0.31;100.00;101563.84;5051937;28;20196;-55
2022/12/20 03:10:11;;;;;;;28.17;14.53;;;;;;;-0.21;100.00;101554.94;5052020;28;20700;-56
2022/12/20 03:12:38;;;;;;;28.40;13.93;;;;;;;-0.26;100.00;101562.41;5052222;28;20219;-56
2022/12/20 03:15:05;;;;;;;29.33;14.77;;;;;;;-0.39;100.00;101552.41;5051867;28;20287;-57
2022/12/20 03:17:34;;;;;;;24.90;12.67;;;;;;;-0.48;100.00;101552.00;5052066;28;20222;-56
2022/12/20 03:20:01;;;;;;;23.23;13.20;;;;;;;-0.32;100.00;101551.91;5051438;28;20834;-56
2022/12/20 03:22:27;;;;;;;26.37;13.83;;;;;;;-0.26;100.00;101549.66;5051569;28;20200;-55
2022/12/20 03:24:54;;;;;;;23.60;12.80;;;;;;;-0.23;100.00;101547.25;5051674;28;20211;-55
2022/12/20 03:27:21;;;;;;;25.47;12.13;;;;;;;-0.23;100.00;101547.25;5051901;28;20580;-56
2022/12/20 03:29:48;;;;;;;26.80;13.10;;;;;;;-0.18;100.00;101550.88;5051687;28;20201;-57
2022/12/20 03:32:15;;;;;;;23.60;12.17;;;;;;;-0.24;100.00;101550.59;5051833;28;20736;-57
2022/12/20 03:34:43;;;;;;;18.10;11.67;;;;;;;-0.27;100.00;101524.06;5051408;28;20207;-57
2022/12/20 03:37:10;;;;;;;23.20;12.20;;;;;;;-0.16;100.00;101559.47;5051444;28;20224;-56
2022/12/20 03:39:37;;;;;;;23.60;12.67;;;;;;;-0.18;100.00;101555.97;5051384;28;20204;-57
2022/12/20 03:42:04;;;;;;;19.77;11.10;;;;;;;-0.07;100.00;101562.47;5051476;28;20722;-56
2022/12/20 03:44:31;;;;;;;20.57;11.40;;;;;;;-0.05;100.00;101559.97;5051570;28;20197;-55
2022/12/20 03:46:58;;;;;;;24.57;11.50;;;;;;;0.02;100.00;101558.56;5051270;28;20201;-57
2022/12/20 03:49:25;;;;;;;22.87;11.37;;;;;;;0.00;100.00;101561.94;5051516;28;20573;-56
2022/12/20 03:51:53;;;;;;;22.67;11.97;;;;;;;0.04;100.00;101573.16;5050872;28;20203;-60
2022/12/20 03:54:20;;;;;;;17.87;10.77;;;;;;;-0.08;100.00;101559.84;5051315;28;20201;-60
2022/12/20 03:56:47;;;;;;;19.90;10.77;;;;;;;0.00;100.00;101569.59;5051139;28;20192;-60
2022/12/20 03:59:14;;;;;;;21.10;11.03;;;;;;;-0.02;100.00;101568.66;5051164;28;20219;-60
2022/12/20 04:01:41;;;;;;;23.37;11.70;;;;;;;0.04;100.00;101572.28;5051012;28;20676;-60
2022/12/20 04:04:11;;;;;;;19.77;10.90;;;;;;;0.03;100.00;101561.22;5050733;28;20668;-60
2022/12/20 04:06:37;;;;;;;22.80;11.07;;;;;;;0.11;100.00;101559.03;5050589;28;20192;-60
2022/12/20 04:09:06;;;;;;;22.07;11.90;;;;;;;0.11;100.00;101561.59;5050702;28;20204;-60
2022/12/20 04:11:33;;;;;;;24.50;12.57;;;;;;;0.11;100.00;101559.03;5050630;28;20203;-60
2022/12/20 04:14:00;;;;;;;27.33;14.33;;;;;;;-0.09;100.00;101566.63;5047906;28;20700;-60
2022/12/20 04:16:29;;;;;;;23.87;13.23;;;;;;;-0.19;100.00;101568.66;5030704;28;20264;-58
2022/12/20 04:18:57;;;;;;;27.27;13.23;;;;;;;-0.22;100.00;101563.41;5030540;28;20220;-55
2022/12/20 04:21:24;;;;;;;27.80;13.07;;;;;;;-0.12;100.00;101573.28;5030791;28;20232;-56
2022/12/20 04:23:51;;;;;;;24.90;12.47;;;;;;;-0.08;100.00;101573.47;5030638;28;20233;-55
2022/12/20 04:26:20;;;;;;;26.03;12.83;;;;;;;-0.23;100.00;101561.69;5045762;28;20525;-55
2022/12/20 04:28:47;;;;;;;21.73;12.47;;;;;;;-0.19;100.00;101559.34;5069393;28;20196;-56
2022/12/20 04:31:14;;;;;;;25.97;12.50;;;;;;;-0.20;100.00;101567.78;5070413;28;20290;-55
2022/12/20 04:33:42;;;;;;;23.93;13.23;;;;;;;-0.23;100.00;101566.78;5070305;28;20701;-55
2022/12/20 04:36:09;;;;;;;25.17;13.90;;;;;;;-0.15;100.00;101561.25;5070314;28;20196;-55
2022/12/20 04:38:36;;;;;;;26.53;15.47;;;;;;;-0.27;100.00;101570.00;5049216;28;20625;-55
2022/12/20 04:41:03;;;;;;;26.73;15.23;;;;;;;-0.15;100.00;101574.00;5030114;28;20223;-55
2022/12/20 04:43:32;;;;;;;27.93;16.10;;;;;;;-0.22;100.00;101569.38;5030614;28;20643;-56
2022/12/20 04:45:59;;;;;;;27.37;14.70;;;;;;;-0.22;100.00;101571.06;5030323;28;20673;-55
2022/12/20 04:48:28;;;;;;;29.73;15.80;;;;;;;-0.18;100.00;101561.09;5030058;28;20212;-55
2022/12/20 04:50:56;;;;;;;24.43;13.70;;;;;;;-0.22;100.00;101564.28;5030057;28;20240;-56
2022/12/20 04:56:09;;;;;;;29.40;14.73;;;;;;;-0.25;100.00;101558.19;5029826;28;20200;-56
2022/12/20 04:58:37;;;;;;;30.97;14.10;;;;;;;-0.17;100.00;101559.41;5030119;28;20281;-56
2022/12/20 05:01:05;;;;;;;22.73;13.73;;;;;;;-0.11;100.00;101557.13;5029769;28;20225;-56
2022/12/20 05:03:32;;;;;;;30.20;15.07;;;;;;;-0.06;100.00;101551.44;5030918;28;20664;-55
2022/12/20 05:05:59;;;;;;;29.80;15.43;;;;;;;-0.13;100.00;101559.63;5047354;28;20197;-56
2022/12/20 05:08:26;;;;;;;34.43;16.30;;;;;;;-0.09;100.00;101556.41;5049779;28;20192;-56
2022/12/20 05:10:53;;;;;;;35.70;16.47;;;;;;;-0.12;100.00;101550.31;5050062;28;20232;-56
2022/12/20 05:13:20;;;;;;;31.97;16.23;;;;;;;-0.11;100.00;101545.25;5049313;28;20226;-57
2022/12/20 05:15:51;;;;;;;34.47;16.23;;;;;;;-0.15;100.00;101547.59;5049707;28;20232;-56
2022/12/20 05:18:18;;;;;;;28.73;16.27;;;;;;;-0.23;100.00;101544.69;5049612;28;20203;-60
2022/12/20 05:20:45;;;;;;;32.53;16.57;;;;;;;-0.14;100.00;101549.34;5049647;28;20196;-60
2022/12/20 05:28:41;;;;;;;36.87;17.27;;;;;;;-0.32;100.00;101546.78;5049161;28;20302;-61
2022/12/20 05:31:09;;;;;;;29.50;16.27;;;;;;;-0.30;100.00;101540.09;5048891;28;20188;-59
2022/12/20 05:33:36;;;;;;;35.20;16.93;;;;;;;-0.17;100.00;101541.53;5048811;28;20292;-60
2022/12/20 05:36:03;;;;;;;31.90;16.37;;;;;;;-0.11;100.00;101540.13;5048887;28;20201;-60
2022/12/20 05:38:30;;;;;;;38.13;17.90;;;;;;;-0.15;100.00;101540.81;5049487;28;20292;-60
2022/12/20 05:40:57;;;;;;;35.33;17.33;;;;;;;-0.14;100.00;101537.47;5048869;28;20200;-60
2022/12/20 05:43:24;;;;;;;36.57;17.87;;;;;;;-0.12;100.00;101535.00;5049334;28;20204;-60
2022/12/20 05:45:52;;;;;;;44.20;18.17;;;;;;;-0.20;100.00;101532.06;5049309;28;20196;-60
2022/12/20 05:48:21;;;;;;;40.73;18.87;;;;;;;-0.14;100.00;101534.91;5049283;28;20201;-61
2022/12/20 05:50:48;;;;;;;35.97;18.30;;;;;;;-0.08;100.00;101532.63;5048084;28;20608;-56
2022/12/20 05:53:16;;;;;;;36.77;19.50;;;;;;;-0.18;100.00;101539.78;5049343;28;20562;-56
2022/12/20 05:55:44;;;;;;;38.40;18.60;;;;;;;-0.31;100.00;101542.56;5049345;28;20211;-57
2022/12/20 05:58:12;;;;;;;36.50;17.57;;;;;;;-0.26;100.00;101542.00;5048982;28;20287;-56
2022/12/20 06:00:40;;;;;;;43.53;19.03;;;;;;;-0.14;100.00;101536.59;5049052;28;20204;-55
2022/12/20 06:03:09;;;;;;;39.00;18.67;;;;;;;0.01;100.00;101534.72;5048927;28;20634;-55
2022/12/20 06:05:37;;;;;;;37.37;17.10;;;;;;;-0.04;100.00;101544.75;5049105;28;20254;-59
2022/12/20 06:08:05;;;;;;;40.70;16.73;;;;;;;0.00;100.00;101535.56;5049191;28;20291;-60
2022/12/20 06:10:33;;;;;;;51.13;17.43;;;;;;;-0.05;100.00;101535.34;5048597;28;20516;-61
2022/12/20 06:13:01;;;;;;;43.20;18.43;;;;;;;0.03;100.00;101537.34;5039397;28;20221;-61
2022/12/20 06:15:28;;;;;;;40.50;18.27;;;;;;;0.00;100.00;101536.41;5028489;28;20249;-60
2022/12/20 06:17:55;;;;;;;40.67;18.60;;;;;;;0.07;100.00;101546.91;5028151;28;20227;-59
2022/12/20 06:20:22;;;;;;;34.60;16.97;;;;;;;0.13;100.00;101549.72;5027788;28;20225;-56
2022/12/20 06:22:51;;;;;;;46.90;19.47;;;;;;;0.11;100.00;101536.03;5062036;28;20270;-56
2022/12/20 06:25:18;;;;;;;43.03;19.60;;;;;;;0.24;100.00;101540.88;5068556;28;20230;-61
2022/12/20 06:27:45;;;;;;;47.47;18.97;;;;;;;0.32;100.00;101540.44;5068415;28;20615;-60
2022/12/20 06:30:13;;;;;;;39.27;19.00;;;;;;;0.26;100.00;101539.28;5068389;28;20310;-61
2022/12/20 06:32:40;;;;;;;48.50;20.57;;;;;;;0.28;100.00;101545.34;5068089;28;20314;-60
2022/12/20 06:35:07;;;;;;;45.50;21.70;;;;;;;0.31;100.00;101545.47;5067974;28;20215;-60
2022/12/20 06:37:35;;;;;;;48.00;22.57;;;;;;;0.38;100.00;101550.03;5066572;28;20593;-61
2022/12/20 06:40:04;;;;;;;49.57;23.03;;;;;;;0.46;100.00;101548.69;5068331;28;20199;-61
2022/12/20 06:42:32;;;;;;;47.63;21.23;;;;;;;0.49;100.00;101540.28;5068353;28;20296;-56
2022/12/20 06:44:59;;;;;;;39.03;19.90;;;;;;;0.52;100.00;101546.41;5068557;28;20201;-61
2022/12/20 06:47:26;;;;;;;53.67;22.20;;;;;;;0.78;100.00;101539.91;5048361;28;20480;-62
2022/12/20 06:49:53;;;;;;;56.53;27.27;;;;;;;0.91;100.00;101525.94;5028058;28;20773;-56
2022/12/20 06:52:20;;;;;;;81.50;35.43;;;;;;;0.93;100.00;101537.09;5028329;28;20213;-57
2022/12/20 06:54:47;;;;;;;56.73;29.37;;;;;;;0.95;100.00;101538.03;5028191;28;20221;-56
2022/12/20 06:57:15;;;;;;;52.27;25.70;;;;;;;1.06;100.00;101537.69;5028139;28;20238;-56
2022/12/20 06:59:42;;;;;;;49.97;21.40;;;;;;;1.07;100.00;101525.78;5027091;28;20231;-61
2022/12/20 07:02:10;;;;;;;38.67;20.30;;;;;;;1.19;100.00;101535.63;5039059;28;20620;-61
2022/12/20 07:04:37;;;;;;;39.77;19.17;;;;;;;1.28;100.00;101524.09;5071639;28;20611;-55
2022/12/20 07:07:05;;;;;;;38.70;18.33;;;;;;;1.29;100.00;101536.06;5071601;28;20232;-61
2022/12/20 07:09:32;;;;;;;31.87;17.77;;;;;;;1.35;100.00;101538.91;5071101;28;20234;-61
2022/12/20 07:11:59;;;;;;;35.20;18.53;;;;;;;1.36;100.00;101532.94;5071735;28;20218;-61
2022/12/20 07:14:27;;;;;;;37.40;18.00;;;;;;;1.47;100.00;101538.50;5071266;28;20194;-61
2022/12/20 07:16:54;;;;;;;41.07;18.57;;;;;;;1.33;100.00;101540.50;5071714;28;20237;-61
2022/12/20 07:19:23;;;;;;;35.93;17.53;;;;;;;1.26;100.00;101530.81;5071713;28;20255;-62
2022/12/20 07:21:50;;;;;;;47.53;21.13;;;;;;;1.33;100.00;101535.41;5061043;28;20276;-60
2022/12/20 07:24:17;;;;;;;45.00;22.67;;;;;;;1.42;100.00;101537.44;5068500;28;20207;-61
2022/12/20 07:26:45;;;;;;;35.80;21.23;;;;;;;1.44;100.00;101530.72;5070288;28;20290;-61
2022/12/20 07:29:12;;;;;;;43.87;20.57;;;;;;;1.51;100.00;101529.25;5070445;28;20196;-61
2022/12/20 07:31:40;;;;;;;36.53;18.30;;;;;;;1.71;100.00;101534.34;5070876;28;20203;-61
2022/12/20 07:34:07;;;;;;;37.07;19.17;;;;;;;1.80;100.00;101521.94;5070332;28;20200;-60
2022/12/20 07:36:34;;;;;;;28.90;16.83;;;;;;;1.99;100.00;101526.06;5070360;28;20207;-61
2022/12/20 07:39:01;;;;;;;40.20;22.33;;;;;;;1.91;100.00;101519.78;5070671;28;20198;-60
2022/12/20 07:41:28;;;;;;;37.40;20.93;;;;;;;1.86;100.00;101516.16;5070137;28;20193;-61
2022/12/20 07:43:57;;;;;;;35.00;16.67;;;;;;;1.80;100.00;101506.56;5070041;28;20198;-61
2022/12/20 07:46:24;;;;;;;30.00;16.23;;;;;;;1.94;100.00;101509.63;5070148;28;20213;-61
2022/12/20 07:48:52;;;;;;;31.07;14.27;;;;;;;1.88;100.00;101505.97;5070226;28;20288;-61
2022/12/20 07:51:23;;;;;;;26.90;15.97;;;;;;;1.97;100.00;101508.88;5070249;28;20201;-61
2022/12/20 07:53:54;;;;;;;30.57;15.37;;;;;;;2.07;100.00;101503.28;5064594;28;20666;-61
2022/12/20 07:56:22;;;;;;;30.13;15.20;;;;;;;2.12;99.38;101506.91;5069894;28;20209;-61
2022/12/20 07:58:52;;;;;;;27.57;14.73;;;;;;;2.21;99.39;101498.66;5064578;28;20210;-61
2022/12/20 08:01:21;;;;;;;27.47;15.33;;;;;;;2.02;99.55;101510.81;5069916;28;20283;-60
2022/12/20 08:03:51;;;;;;;29.00;14.43;;;;;;;2.10;99.75;101508.53;5056930;28;20223;-60
2022/12/20 08:06:20;;;;;;;26.00;15.57;;;;;;;2.13;99.84;101503.53;5030844;28;20200;-60
2022/12/20 08:08:49;;;;;;;27.70;14.63;;;;;;;2.14;100.00;101502.72;5050503;28;20208;-61
2022/12/20 08:11:18;;;;;;;25.07;15.03;;;;;;;2.10;100.00;101480.34;5050582;28;20286;-61
2022/12/20 08:13:45;;;;;;;29.63;17.20;;;;;;;2.12;100.00;101492.41;5049696;28;20200;-56
2022/12/20 08:16:12;;;;;;;36.93;19.73;;;;;;;2.33;100.00;101494.00;5050341;28;20247;-55
2022/12/20 08:18:39;;;;;;;32.67;16.70;;;;;;;2.23;100.00;101492.78;5050975;28;20586;-55
2022/12/20 08:21:06;;;;;;;46.77;20.23;;;;;;;2.22;100.00;101483.34;5050565;28;20200;-55
2022/12/20 08:23:34;;;;;;;37.87;19.33;;;;;;;2.40;100.00;101483.13;5050642;28;20318;-55
2022/12/20 08:26:02;;;;;;;29.03;15.77;;;;;;;2.46;98.96;101473.13;5050600;28;20204;-59
2022/12/20 08:28:29;;;;;;;28.93;16.03;;;;;;;2.52;98.66;101473.31;5050821;28;20268;-61
2022/12/20 08:31:01;;;;;;;33.20;17.37;;;;;;;2.58;99.08;101476.09;5050118;28;20211;-60
2022/12/20 08:33:28;;;;;;;34.70;16.60;;;;;;;2.68;98.83;101475.59;5050298;28;20200;-60
2022/12/20 08:35:58;;;;;;;25.73;15.63;;;;;;;2.70;98.76;101476.53;5050233;28;20642;-60
2022/12/20 08:38:26;;;;;;;32.50;18.23;;;;;;;2.58;99.25;101477.81;5050285;28;20197;-60
2022/12/20 08:40:55;;;;;;;26.73;15.67;;;;;;;2.67;98.37;101478.13;5050357;28;20204;-61
2022/12/20 08:43:22;;;;;;;41.70;19.27;;;;;;;2.64;98.35;101463.47;5050402;28;20230;-60
2022/12/20 08:45:52;;;;;;;39.30;19.87;;;;;;;2.72;98.72;101461.16;5050254;28;20206;-61
2022/12/20 08:48:19;;;;;;;37.57;17.90;;;;;;;2.86;97.84;101460.81;5050307;28;20201;-55
2022/12/20 08:50:46;;;;;;;36.10;16.13;;;;;;;2.89;97.48;101455.81;5050362;28;20291;-56
2022/12/20 08:53:13;;;;;;;28.20;13.80;;;;;;;2.89;96.64;101460.94;5050011;28;20193;-61
2022/12/20 08:55:40;;;;;;;26.67;14.60;;;;;;;2.85;96.18;101458.22;5049937;28;20228;-60
2022/12/20 08:58:08;;;;;;;32.73;16.97;;;;;;;2.81;98.07;101447.00;5050196;28;20200;-60
2022/12/20 09:00:36;;;;;;;31.60;16.70;;;;;;;2.85;98.68;101424.88;5050055;28;20211;-56
2022/12/20 09:03:03;;;;;;;33.63;17.03;;;;;;;2.97;99.60;101442.34;5049969;28;20227;-61
2022/12/20 09:05:30;;;;;;;33.63;18.10;;;;;;;3.03;97.58;101432.31;5050081;28;20200;-60
2022/12/20 09:07:56;;;;;;;30.40;17.97;;;;;;;3.02;96.85;101431.44;5049900;28;20201;-60
2022/12/20 09:10:23;;;;;;;32.77;16.60;;;;;;;3.02;95.73;101425.44;5050094;28;20955;-61
2022/12/20 09:12:50;;;;;;;30.70;17.87;;;;;;;2.95;95.99;101431.16;5049465;28;20193;-56
2022/12/20 09:15:19;;;;;;;34.83;18.33;;;;;;;2.99;95.39;101425.31;5049170;28;20211;-60
2022/12/20 09:17:46;;;;;;;33.97;16.07;;;;;;;3.06;95.31;101417.00;5049904;28;20201;-61
2022/12/20 09:20:14;;;;;;;26.67;15.67;;;;;;;3.18;94.30;101431.09;5050125;28;20354;-61
2022/12/20 09:22:41;;;;;;;30.90;15.30;;;;;;;3.18;94.92;101417.38;5049658;28;20220;-56
2022/12/20 09:25:09;;;;;;;26.10;14.27;;;;;;;3.07;95.36;101418.72;5049388;28;20227;-56
2022/12/20 09:27:36;;;;;;;28.63;15.57;;;;;;;3.07;95.63;101411.03;5049375;28;20204;-57
2022/12/20 09:30:04;;;;;;;26.20;14.73;;;;;;;3.21;95.23;101408.09;5049513;28;20491;-61
2022/12/20 09:32:32;;;;;;;27.53;14.83;;;;;;;3.27;94.68;101404.84;5049050;28;20193;-61
2022/12/20 09:34:59;;;;;;;36.10;19.70;;;;;;;3.44;94.00;101398.53;5048947;28;20205;-61
2022/12/20 09:37:29;;;;;;;29.87;17.37;;;;;;;3.53;93.28;101395.34;5049408;28;20193;-62
2022/12/20 09:39:56;;;;;;;32.67;19.13;;;;;;;3.53;93.33;101385.97;5049266;28;20196;-61
2022/12/20 09:42:27;;;;;;;26.43;16.43;;;;;;;3.43;93.14;101378.81;5049823;28;20224;-56
2022/12/20 09:45:06;;;;;;;23.43;14.27;;;;;;;3.40;92.83;101376.16;5049316;28;20204;-56
2022/12/20 09:47:35;;;;;;;28.50;15.73;;;;;;;3.47;92.76;101370.38;5049349;28;20211;-56
2022/12/20 09:50:05;;;;;;;27.47;14.80;;;;;;;3.53;93.29;101365.41;5048922;28;20650;-60
2022/12/20 09:52:51;;;;;;;29.20;16.93;;;;;;;3.62;93.11;101375.06;5048653;28;20275;-55
2022/12/20 09:55:27;;;;;;;32.87;17.63;;;;;;;3.58;93.91;101361.31;5049395;28;20193;-56
2022/12/20 09:58:14;;;;;;;30.37;15.20;;;;;;;3.46;93.07;101353.25;5049110;28;20200;-56
2022/12/20 10:00:45;;;;;;;22.93;13.33;;;;;;;3.48;92.51;101351.59;5049350;28;20734;-55
2022/12/20 10:03:21;;;;;;;26.53;14.57;;;;;;;3.61;92.75;101338.25;5048938;28;20589;-55
2022/12/20 10:05:52;;;;;;;22.80;12.60;;;;;;;3.58;91.91;101338.19;5049304;28;20192;-56
2022/12/20 10:08:33;;;;;;;19.30;11.37;;;;;;;3.68;91.31;101335.88;5049399;28;20308;-56
2022/12/20 10:11:08;;;;;;;23.17;12.83;;;;;;;3.64;91.33;101332.34;5048798;28;20192;-55
2022/12/20 10:13:46;;;;;;;25.53;13.00;;;;;;;3.78;91.03;101330.16;5049135;28;21002;-60
2022/12/20 10:16:28;;;;;;;20.80;12.50;;;;;;;3.83;91.36;101326.91;5048967;28;20232;-61
2022/12/20 10:19:08;;;;;;;23.17;11.80;;;;;;;3.93;90.53;101322.88;5048950;28;20200;-61
2022/12/20 10:21:46;;;;;;;19.13;12.93;;;;;;;3.95;91.32;101318.66;5048752;28;20207;-60
2022/12/20 10:24:18;;;;;;;24.47;13.73;;;;;;;3.80;92.40;101310.53;5048508;28;20262;-61
2022/12/20 10:26:46;;;;;;;22.47;15.57;;;;;;;3.88;91.58;101296.19;5048639;28;20193;-61
2022/12/20 10:29:13;;;;;;;28.10;16.57;;;;;;;4.13;90.44;101301.16;5048974;28;20571;-62
2022/12/20 10:31:40;;;;;;;27.43;15.97;;;;;;;4.14;90.65;101294.31;5048911;28;20196;-61
2022/12/20 10:34:09;;;;;;;21.90;14.13;;;;;;;4.03;90.16;101275.19;5048759;28;20203;-61
2022/12/20 10:36:37;;;;;;;23.83;13.83;;;;;;;4.13;89.99;101285.72;5050931;28;20254;-61
2022/12/20 10:39:06;;;;;;;27.60;15.07;;;;;;;4.21;89.66;101279.06;5052247;28;20207;-61
2022/12/20 10:41:48;;;;;;;37.90;22.10;;;;;;;4.15;89.83;101281.50;5052534;28;20207;-61
2022/12/20 10:44:20;;;;;;;33.50;19.63;;;;;;;4.07;90.24;101271.84;5052392;28;20216;-61
2022/12/20 10:46:49;;;;;;;30.03;16.93;;;;;;;4.13;89.60;101266.88;5052923;28;20291;-61
2022/12/20 10:49:29;;;;;;;41.77;22.83;;;;;;;4.07;89.34;101254.72;5051883;28;20205;-61
2022/12/20 10:51:58;;;;;;;29.00;17.83;;;;;;;4.11;87.96;101253.09;5051030;28;20192;-62
2022/12/20 10:54:31;;;;;;;24.63;14.43;;;;;;;4.19;88.30;101247.31;5051722;28;20210;-62
2022/12/20 10:57:00;;;;;;;25.33;15.00;;;;;;;4.23;88.71;101254.28;5051595;28;20197;-62
2022/12/20 10:59:34;;;;;;;25.20;14.53;;;;;;;4.34;89.61;101247.72;5051559;28;20198;-56
2022/12/20 11:02:01;;;;;;;23.97;15.60;;;;;;;4.35;88.69;101238.28;5051605;28;20204;-57
2022/12/20 11:04:32;;;;;;;23.83;12.50;;;;;;;4.33;87.00;101225.41;5052102;28;20222;-61
2022/12/20 11:07:00;;;;;;;24.47;15.00;;;;;;;4.30;87.28;101230.47;5052120;28;20243;-62
2022/12/20 11:09:30;;;;;;;32.23;20.07;;;;;;;4.21;88.35;101219.97;5052136;28;20293;-61
2022/12/20 11:12:04;;;;;;;25.63;15.57;;;;;;;4.28;88.48;101221.88;5052220;28;20201;-60
2022/12/20 11:14:33;;;;;;;22.13;13.00;;;;;;;4.41;87.87;101219.56;5051972;28;20232;-61
2022/12/20 11:17:05;;;;;;;20.57;13.33;;;;;;;4.47;88.21;101212.88;5051884;28;20271;-62
2022/12/20 11:19:55;;;;;;;21.70;13.07;;;;;;;4.55;87.75;101203.63;5056932;28;20210;-62
2022/12/20 11:22:38;;;;;;;19.77;13.07;;;;;;;4.59;87.65;101196.84;5067459;28;20199;-61
2022/12/20 11:25:20;;;;;;;21.13;12.90;;;;;;;4.65;88.13;101192.69;5068397;28;20563;-56
2022/12/20 11:27:57;;;;;;;22.03;13.40;;;;;;;4.58;88.19;101183.13;5068520;28;20200;-56
2022/12/20 11:30:27;;;;;;;23.73;13.63;;;;;;;4.66;86.90;101185.84;5067551;28;20307;-57
2022/12/20 11:33:13;;;;;;;19.23;12.23;;;;;;;4.52;86.24;101182.09;5070453;28;20207;-61